Tug "trevor" — WCP6921 — position and weather

sailwx.info

Track history (hours):
 
Tides and Currents Weather Stations Pressure Air Temp Water Temp Dewpoint Dewpoint Depression Visibility Wind Speed Wind Dir Waves Ship Positions

Tug "trevor"

Owner: WEEKS MARINE, INC., CRANFORD, NJ. More information available from US FCC via Universal Licensing System and Coast Guard Vessel Documentation Center.

Last reported at 2016-Jun-29 08:33 UTC. Time now 2016-Jun-29 09:19 UTC.
Position N 39°57' W 075°08'.

Length 21 m; draft 3 m.

Type: Towing. MMSI: 366643140.

Date/timePositionNaut miles runAvg speedWind from/ knotsBaromVisibWave heightAir tempDewpointWater temp
2016-Jun-29 08:33N 39°57' W 075°08'0 0.0
2016-Jun-29 07:34N 39°57' W 075°08'0 0.0
2016-Jun-29 06:34N 39°57' W 075°08'0 0.0
2016-Jun-29 05:34N 39°57' W 075°08'0 0.0
2016-Jun-29 04:34N 39°57' W 075°08'0 0.0
2016-Jun-29 03:34N 39°57' W 075°08'0 0.0
2016-Jun-29 02:34N 39°57' W 075°08'0 0.0
2016-Jun-29 01:34N 39°57' W 075°08'0 0.0
2016-Jun-29 00:34N 39°57' W 075°08'0 0.0
2016-Jun-28 23:34N 39°57' W 075°08'0 0.1
2016-Jun-28 22:34N 39°57' W 075°08'0 0.1
2016-Jun-28 21:34N 39°57' W 075°08'0 0.0
2016-Jun-28 20:34N 39°57' W 075°08'0 0.0
2016-Jun-28 19:34N 39°57' W 075°08'0 0.0
2016-Jun-28 18:33N 39°57' W 075°08'0 0.0
2016-Jun-28 17:34N 39°57' W 075°08'0 0.0
2016-Jun-28 16:34N 39°57' W 075°08'0 0.0
2016-Jun-28 15:33N 39°57' W 075°08'0 0.0
2016-Jun-28 14:34N 39°57' W 075°08'0 0.0
2016-Jun-28 13:34N 39°57' W 075°08'0 0.0
2016-Jun-28 12:33N 39°57' W 075°08'0 0.0
2016-Jun-28 11:34N 39°57' W 075°08'0 0.0
2016-Jun-28 10:34N 39°57' W 075°08'0 0.0
2016-Jun-28 09:34N 39°57' W 075°08'0 0.0
2016-Jun-28 08:33N 39°57' W 075°08'0 0.0
2016-Jun-28 07:34N 39°57' W 075°08'0 0.0
2016-Jun-28 06:33N 39°57' W 075°08'0 0.0
2016-Jun-28 04:34N 39°57' W 075°08'0 0.0
2016-Jun-28 03:34N 39°57' W 075°08'0 0.0
2016-Jun-28 02:34N 39°57' W 075°08'0 0.0
2016-Jun-28 01:34N 39°57' W 075°08'0 0.0
2016-Jun-28 00:33N 39°57' W 075°08'0 0.0
2016-Jun-27 23:34N 39°57' W 075°08'0 0.0
2016-Jun-27 22:33N 39°57' W 075°08'0 0.0
2016-Jun-27 21:34N 39°57' W 075°08'0 0.0
2016-Jun-27 20:34N 39°57' W 075°08'0 0.0
2016-Jun-27 19:33N 39°57' W 075°08'0 0.0
2016-Jun-27 18:34N 39°57' W 075°08'0 0.0
2016-Jun-27 17:34N 39°57' W 075°08'0 0.0
2016-Jun-27 16:34N 39°57' W 075°08'0 0.0
2016-Jun-27 15:34N 39°57' W 075°08'0 0.0
2016-Jun-27 14:33N 39°57' W 075°08'0 0.0
2016-Jun-27 13:33N 39°57' W 075°08'0 0.0
2016-Jun-27 12:34N 39°57' W 075°08'0 0.0
2016-Jun-27 11:34N 39°57' W 075°08'0 0.0
2016-Jun-27 10:34N 39°57' W 075°08'0 0.0
2016-Jun-27 09:34N 39°57' W 075°08'0 0.0
2016-Jun-27 08:34N 39°57' W 075°08'0 0.0
2016-Jun-27 07:34N 39°57' W 075°08'0 0.0
2016-Jun-27 06:34N 39°57' W 075°08'0 0.0
2016-Jun-27 05:34N 39°57' W 075°08'0 0.0
2016-Jun-27 04:34N 39°57' W 075°08'0 0.0
2016-Jun-27 03:34N 39°57' W 075°08'0 0.0
2016-Jun-27 02:34N 39°57' W 075°08'0 0.0
2016-Jun-27 01:34N 39°57' W 075°08'0 0.0
2016-Jun-27 00:34N 39°57' W 075°08'0 0.0
2016-Jun-26 23:34N 39°57' W 075°08'0 0.0
2016-Jun-26 22:34N 39°57' W 075°08'0 0.0
2016-Jun-26 21:33N 39°57' W 075°08'0 0.0
2016-Jun-26 20:34N 39°57' W 075°08'0 0.0
2016-Jun-26 19:34N 39°57' W 075°08'6 5.6
2016-Jun-26 18:33N 39°53' W 075°12'7 7.2
2016-Jun-26 17:34N 39°51' W 075°21'6 6.2
2016-Jun-26 16:34N 39°47' W 075°27'6 5.9
2016-Jun-26 15:33N 39°42' W 075°31'5 5.4
2016-Jun-26 14:34N 39°37' W 075°35'5 5.2
2016-Jun-26 13:34N 39°32' W 075°33'3 3.5
2016-Jun-26 12:33N 39°29' W 075°33'2 2.0
2016-Jun-26 11:34N 39°31' W 075°33'10 9.7
2016-Jun-26 10:33N 39°40' W 075°32'9 8.9
2016-Jun-26 09:34N 39°48' W 075°26'4 3.6
2016-Jun-26 08:33N 39°50' W 075°22'2 1.9
2016-Jun-26 07:34N 39°49' W 075°24'8 7.5
2016-Jun-26 06:33N 39°43' W 075°30'8 7.9
2016-Jun-26 05:34N 39°36' W 075°34'8 8.0
2016-Jun-26 04:33N 39°28' W 075°33'7 7.3
2016-Jun-26 03:33N 39°22' W 075°27'7 6.9
2016-Jun-26 02:34N 39°17' W 075°22'7 6.6
2016-Jun-26 01:33N 39°11' W 075°17'30 4.7
2016-Jun-25 19:12N 38°52' W 074°48'44 7.3
2016-Jun-25 13:15N 39°26' W 074°12'7 7.3
2016-Jun-25 12:20N 39°32' W 074°09'6 7.4
2016-Jun-25 11:33N 39°38' W 074°07'55 5.5
2016-Jun-25 01:33N 40°33' W 074°02'5 5.4
2016-Jun-25 00:33N 40°38' W 074°03'2 2.4
2016-Jun-24 23:33N 40°40' W 074°04'0 0.0
2016-Jun-24 22:34N 40°40' W 074°04'0 0.0
2016-Jun-24 21:33N 40°40' W 074°04'2 2.2
2016-Jun-24 20:33N 40°39' W 074°06'0 0.1
2016-Jun-24 18:34N 40°39' W 074°07'2 2.3
2016-Jun-24 17:34N 40°40' W 074°04'0 0.0
2016-Jun-24 16:34N 40°40' W 074°04'0 0.4
2016-Jun-24 15:34N 40°41' W 074°05'0 0.3
2016-Jun-24 14:34N 40°41' W 074°04'0 0.1
2016-Jun-24 13:33N 40°41' W 074°05'0 0.0
2016-Jun-24 12:34N 40°41' W 074°05'0 0.0
2016-Jun-24 11:33N 40°41' W 074°05'0 0.0
2016-Jun-24 10:34N 40°41' W 074°05'0 0.0
2016-Jun-24 09:33N 40°41' W 074°05'0 0.0
2016-Jun-24 08:33N 40°41' W 074°05'0 0.0
2016-Jun-24 07:33N 40°41' W 074°05'0 0.0
2016-Jun-24 04:33N 40°41' W 074°05'0 0.0
2016-Jun-24 03:34N 40°41' W 074°05'0 0.0
2016-Jun-24 02:34N 40°41' W 074°05'0 0.0
2016-Jun-24 01:33N 40°41' W 074°05'0 0.0
2016-Jun-24 00:33N 40°41' W 074°05'0 0.2
2016-Jun-23 23:34N 40°41' W 074°04'0 0.1
2016-Jun-23 22:34N 40°41' W 074°04'0 0.1
2016-Jun-23 21:34N 40°41' W 074°05'0 0.0
2016-Jun-23 20:33N 40°41' W 074°05'0 0.0
2016-Jun-23 19:33N 40°41' W 074°05'0 0.2
2016-Jun-23 18:33N 40°40' W 074°04'0 0.0
2016-Jun-23 17:34N 40°40' W 074°04'0 0.1
2016-Jun-23 16:33N 40°41' W 074°04'0 0.1
2016-Jun-23 15:33N 40°40' W 074°04'0 0.2
2016-Jun-23 14:34N 40°41' W 074°05'0 0.0
2016-Jun-23 13:33N 40°41' W 074°05'0 0.0
2016-Jun-23 12:33N 40°41' W 074°05'0 0.0
2016-Jun-23 11:33N 40°41' W 074°05'0 0.1
2016-Jun-23 10:33N 40°41' W 074°04'0 0.1
2016-Jun-23 09:33N 40°41' W 074°05'0 0.0
2016-Jun-23 08:33N 40°41' W 074°05'0 0.0
2016-Jun-23 07:33N 40°41' W 074°05'0 0.0
2016-Jun-23 05:34N 40°41' W 074°05'0 0.0
2016-Jun-23 04:33N 40°41' W 074°05'0 0.0
2016-Jun-23 03:34N 40°41' W 074°05'0 0.2
2016-Jun-23 02:34N 40°40' W 074°04'3 2.7
2016-Jun-23 01:33N 40°38' W 074°03'39 6.5
2016-Jun-22 19:33N 39°59' W 073°59'7 6.7
2016-Jun-22 18:28N 39°52' W 074°01'6 6.6
2016-Jun-22 17:33N 39°46' W 074°03'7 7.0
2016-Jun-22 16:33N 39°39' W 074°05'7 7.2
2016-Jun-22 15:33N 39°33' W 074°09'32 7.2
2016-Jun-22 11:04N 39°07' W 074°34'4 7.2
2016-Jun-22 10:32N 39°04' W 074°38'7 7.3
2016-Jun-22 09:33N 38°58' W 074°43'9 7.2
2016-Jun-22 08:21N 38°51' W 074°49'13 6.2
2016-Jun-22 06:19N 38°54' W 075°04'6 7.8
2016-Jun-22 05:34N 38°59' W 075°08'8 7.6
2016-Jun-22 04:34N 39°06' W 075°12'6 6.3
2016-Jun-22 03:33N 39°11' W 075°17'5 4.9
2016-Jun-22 02:34N 39°15' W 075°20'5 4.8
2016-Jun-22 01:34N 39°19' W 075°24'6 5.7
2016-Jun-22 00:34N 39°23' W 075°29'7 6.8
2016-Jun-21 23:34N 39°29' W 075°34'8 7.7
2016-Jun-21 22:33N 39°36' W 075°34'8 7.8
2016-Jun-21 21:34N 39°44' W 075°30'7 7.2
2016-Jun-21 20:34N 39°49' W 075°24'6 6.1
2016-Jun-21 19:33N 39°51' W 075°16'4 4.3
2016-Jun-21 18:34N 39°53' W 075°11'4 3.6
2016-Jun-21 17:34N 39°55' W 075°08'2 2.0
2016-Jun-21 16:34N 39°57' W 075°08'0 0.0
2016-Jun-21 15:33N 39°57' W 075°08'0 0.0
2016-Jun-21 14:34N 39°57' W 075°08'0 0.0
2016-Jun-21 13:33N 39°57' W 075°08'0 0.0
2016-Jun-21 12:34N 39°57' W 075°08'0 0.0
2016-Jun-21 11:34N 39°57' W 075°08'0 0.0
2016-Jun-21 10:34N 39°57' W 075°08'0 0.0
2016-Jun-21 09:34N 39°57' W 075°08'0 0.0
2016-Jun-21 08:33N 39°57' W 075°08'0 0.0
2016-Jun-21 07:34N 39°57' W 075°08'5 2.3
2016-Jun-21 05:34N 39°53' W 075°09'6 5.5
2016-Jun-21 04:34N 39°51' W 075°16'6 6.3
2016-Jun-21 03:34N 39°49' W 075°24'8 7.9
2016-Jun-21 02:34N 39°43' W 075°30'8 7.9
2016-Jun-21 01:34N 39°35' W 075°33'8 8.0
2016-Jun-21 00:34N 39°27' W 075°33'7 7.3
2016-Jun-20 23:34N 39°22' W 075°27'6 6.3
2016-Jun-20 22:34N 39°17' W 075°22'6 6.0
2016-Jun-20 21:33N 39°12' W 075°17'6 6.1
2016-Jun-20 20:34N 39°07' W 075°13'24 4.0
2016-Jun-20 14:28N 38°54' W 074°47'34 6.7
2016-Jun-20 09:21N 39°20' W 074°19'12 6.2
2016-Jun-20 07:30N 39°29' W 074°09'6 6.0
2016-Jun-20 06:33N 39°35' W 074°08'6 6.2
2016-Jun-20 05:33N 39°40' W 074°04'49 2.7
2016-Jun-19 11:33N 40°29' W 074°01'1 0.5
2016-Jun-19 10:04N 40°29' W 074°01'0 0.0
2016-Jun-19 09:33N 40°29' W 074°01'  
Track history (hours):
 
Tides and Currents Weather Stations Pressure Air Temp Water Temp Dewpoint Dewpoint Depression Visibility Wind Speed Wind Dir Waves Ship Positions

Tug "trevor"

Owner: WEEKS MARINE, INC., CRANFORD, NJ. More information available from US FCC via Universal Licensing System and Coast Guard Vessel Documentation Center.

Last reported at 2016-Jun-29 08:33 UTC. Time now 2016-Jun-29 09:19 UTC.
Position N 39°57' W 075°08'.

Length 21 m; draft 3 m.

Type: Towing. MMSI: 366643140.

Date/timePositionNaut miles runAvg speedWind from/ knotsBaromVisibWave heightAir tempDewpointWater temp
2016-Jun-29 08:33N 39°57' W 075°08'0 0.0
2016-Jun-29 07:34N 39°57' W 075°08'0 0.0
2016-Jun-29 06:34N 39°57' W 075°08'0 0.0
2016-Jun-29 05:34N 39°57' W 075°08'0 0.0
2016-Jun-29 04:34N 39°57' W 075°08'0 0.0
2016-Jun-29 03:34N 39°57' W 075°08'0 0.0
2016-Jun-29 02:34N 39°57' W 075°08'0 0.0
2016-Jun-29 01:34N 39°57' W 075°08'0 0.0
2016-Jun-29 00:34N 39°57' W 075°08'0 0.0
2016-Jun-28 23:34N 39°57' W 075°08'0 0.1
2016-Jun-28 22:34N 39°57' W 075°08'0 0.1
2016-Jun-28 21:34N 39°57' W 075°08'0 0.0
2016-Jun-28 20:34N 39°57' W 075°08'0 0.0
2016-Jun-28 19:34N 39°57' W 075°08'0 0.0
2016-Jun-28 18:33N 39°57' W 075°08'0 0.0
2016-Jun-28 17:34N 39°57' W 075°08'0 0.0
2016-Jun-28 16:34N 39°57' W 075°08'0 0.0
2016-Jun-28 15:33N 39°57' W 075°08'0 0.0
2016-Jun-28 14:34N 39°57' W 075°08'0 0.0
2016-Jun-28 13:34N 39°57' W 075°08'0 0.0
2016-Jun-28 12:33N 39°57' W 075°08'0 0.0
2016-Jun-28 11:34N 39°57' W 075°08'0 0.0
2016-Jun-28 10:34N 39°57' W 075°08'0 0.0
2016-Jun-28 09:34N 39°57' W 075°08'0 0.0
2016-Jun-28 08:33N 39°57' W 075°08'0 0.0
2016-Jun-28 07:34N 39°57' W 075°08'0 0.0
2016-Jun-28 06:33N 39°57' W 075°08'0 0.0
2016-Jun-28 04:34N 39°57' W 075°08'0 0.0
2016-Jun-28 03:34N 39°57' W 075°08'0 0.0
2016-Jun-28 02:34N 39°57' W 075°08'0 0.0
2016-Jun-28 01:34N 39°57' W 075°08'0 0.0
2016-Jun-28 00:33N 39°57' W 075°08'0 0.0
2016-Jun-27 23:34N 39°57' W 075°08'0 0.0
2016-Jun-27 22:33N 39°57' W 075°08'0 0.0
2016-Jun-27 21:34N 39°57' W 075°08'0 0.0
2016-Jun-27 20:34N 39°57' W 075°08'0 0.0
2016-Jun-27 19:33N 39°57' W 075°08'0 0.0
2016-Jun-27 18:34N 39°57' W 075°08'0 0.0
2016-Jun-27 17:34N 39°57' W 075°08'0 0.0
2016-Jun-27 16:34N 39°57' W 075°08'0 0.0
2016-Jun-27 15:34N 39°57' W 075°08'0 0.0
2016-Jun-27 14:33N 39°57' W 075°08'0 0.0
2016-Jun-27 13:33N 39°57' W 075°08'0 0.0
2016-Jun-27 12:34N 39°57' W 075°08'0 0.0
2016-Jun-27 11:34N 39°57' W 075°08'0 0.0
2016-Jun-27 10:34N 39°57' W 075°08'0 0.0
2016-Jun-27 09:34N 39°57' W 075°08'0 0.0
2016-Jun-27 08:34N 39°57' W 075°08'0 0.0
2016-Jun-27 07:34N 39°57' W 075°08'0 0.0
2016-Jun-27 06:34N 39°57' W 075°08'0 0.0
2016-Jun-27 05:34N 39°57' W 075°08'0 0.0
2016-Jun-27 04:34N 39°57' W 075°08'0 0.0
2016-Jun-27 03:34N 39°57' W 075°08'0 0.0
2016-Jun-27 02:34N 39°57' W 075°08'0 0.0
2016-Jun-27 01:34N 39°57' W 075°08'0 0.0
2016-Jun-27 00:34N 39°57' W 075°08'0 0.0
2016-Jun-26 23:34N 39°57' W 075°08'0 0.0
2016-Jun-26 22:34N 39°57' W 075°08'0 0.0
2016-Jun-26 21:33N 39°57' W 075°08'0 0.0
2016-Jun-26 20:34N 39°57' W 075°08'0 0.0
2016-Jun-26 19:34N 39°57' W 075°08'6 5.6
2016-Jun-26 18:33N 39°53' W 075°12'7 7.2
2016-Jun-26 17:34N 39°51' W 075°21'6 6.2
2016-Jun-26 16:34N 39°47' W 075°27'6 5.9
2016-Jun-26 15:33N 39°42' W 075°31'5 5.4
2016-Jun-26 14:34N 39°37' W 075°35'5 5.2
2016-Jun-26 13:34N 39°32' W 075°33'3 3.5
2016-Jun-26 12:33N 39°29' W 075°33'2 2.0
2016-Jun-26 11:34N 39°31' W 075°33'10 9.7
2016-Jun-26 10:33N 39°40' W 075°32'9 8.9
2016-Jun-26 09:34N 39°48' W 075°26'4 3.6
2016-Jun-26 08:33N 39°50' W 075°22'2 1.9
2016-Jun-26 07:34N 39°49' W 075°24'8 7.5
2016-Jun-26 06:33N 39°43' W 075°30'8 7.9
2016-Jun-26 05:34N 39°36' W 075°34'8 8.0
2016-Jun-26 04:33N 39°28' W 075°33'7 7.3
2016-Jun-26 03:33N 39°22' W 075°27'7 6.9
2016-Jun-26 02:34N 39°17' W 075°22'7 6.6
2016-Jun-26 01:33N 39°11' W 075°17'30 4.7
2016-Jun-25 19:12N 38°52' W 074°48'44 7.3
2016-Jun-25 13:15N 39°26' W 074°12'7 7.3
2016-Jun-25 12:20N 39°32' W 074°09'6 7.4
2016-Jun-25 11:33N 39°38' W 074°07'55 5.5
2016-Jun-25 01:33N 40°33' W 074°02'5 5.4
2016-Jun-25 00:33N 40°38' W 074°03'2 2.4
2016-Jun-24 23:33N 40°40' W 074°04'0 0.0
2016-Jun-24 22:34N 40°40' W 074°04'0 0.0
2016-Jun-24 21:33N 40°40' W 074°04'2 2.2
2016-Jun-24 20:33N 40°39' W 074°06'0 0.1
2016-Jun-24 18:34N 40°39' W 074°07'2 2.3
2016-Jun-24 17:34N 40°40' W 074°04'0 0.0
2016-Jun-24 16:34N 40°40' W 074°04'0 0.4
2016-Jun-24 15:34N 40°41' W 074°05'0 0.3
2016-Jun-24 14:34N 40°41' W 074°04'0 0.1
2016-Jun-24 13:33N 40°41' W 074°05'0 0.0
2016-Jun-24 12:34N 40°41' W 074°05'0 0.0
2016-Jun-24 11:33N 40°41' W 074°05'0 0.0
2016-Jun-24 10:34N 40°41' W 074°05'0 0.0
2016-Jun-24 09:33N 40°41' W 074°05'0 0.0
2016-Jun-24 08:33N 40°41' W 074°05'0 0.0
2016-Jun-24 07:33N 40°41' W 074°05'0 0.0
2016-Jun-24 04:33N 40°41' W 074°05'0 0.0
2016-Jun-24 03:34N 40°41' W 074°05'0 0.0
2016-Jun-24 02:34N 40°41' W 074°05'0 0.0
2016-Jun-24 01:33N 40°41' W 074°05'0 0.0
2016-Jun-24 00:33N 40°41' W 074°05'0 0.2
2016-Jun-23 23:34N 40°41' W 074°04'0 0.1
2016-Jun-23 22:34N 40°41' W 074°04'0 0.1
2016-Jun-23 21:34N 40°41' W 074°05'0 0.0
2016-Jun-23 20:33N 40°41' W 074°05'0 0.0
2016-Jun-23 19:33N 40°41' W 074°05'0 0.2
2016-Jun-23 18:33N 40°40' W 074°04'0 0.0
2016-Jun-23 17:34N 40°40' W 074°04'0 0.1
2016-Jun-23 16:33N 40°41' W 074°04'0 0.1
2016-Jun-23 15:33N 40°40' W 074°04'0 0.2
2016-Jun-23 14:34N 40°41' W 074°05'0 0.0
2016-Jun-23 13:33N 40°41' W 074°05'0 0.0
2016-Jun-23 12:33N 40°41' W 074°05'0 0.0
2016-Jun-23 11:33N 40°41' W 074°05'0 0.1
2016-Jun-23 10:33N 40°41' W 074°04'0 0.1
2016-Jun-23 09:33N 40°41' W 074°05'0 0.0
2016-Jun-23 08:33N 40°41' W 074°05'0 0.0
2016-Jun-23 07:33N 40°41' W 074°05'0 0.0
2016-Jun-23 05:34N 40°41' W 074°05'0 0.0
2016-Jun-23 04:33N 40°41' W 074°05'0 0.0
2016-Jun-23 03:34N 40°41' W 074°05'0 0.2
2016-Jun-23 02:34N 40°40' W 074°04'3 2.7
2016-Jun-23 01:33N 40°38' W 074°03'39 6.5
2016-Jun-22 19:33N 39°59' W 073°59'7 6.7
2016-Jun-22 18:28N 39°52' W 074°01'6 6.6
2016-Jun-22 17:33N 39°46' W 074°03'7 7.0
2016-Jun-22 16:33N 39°39' W 074°05'7 7.2
2016-Jun-22 15:33N 39°33' W 074°09'32 7.2
2016-Jun-22 11:04N 39°07' W 074°34'4 7.2
2016-Jun-22 10:32N 39°04' W 074°38'7 7.3
2016-Jun-22 09:33N 38°58' W 074°43'9 7.2
2016-Jun-22 08:21N 38°51' W 074°49'13 6.2
2016-Jun-22 06:19N 38°54' W 075°04'6 7.8
2016-Jun-22 05:34N 38°59' W 075°08'8 7.6
2016-Jun-22 04:34N 39°06' W 075°12'6 6.3
2016-Jun-22 03:33N 39°11' W 075°17'5 4.9
2016-Jun-22 02:34N 39°15' W 075°20'5 4.8
2016-Jun-22 01:34N 39°19' W 075°24'6 5.7
2016-Jun-22 00:34N 39°23' W 075°29'7 6.8
2016-Jun-21 23:34N 39°29' W 075°34'8 7.7
2016-Jun-21 22:33N 39°36' W 075°34'8 7.8
2016-Jun-21 21:34N 39°44' W 075°30'7 7.2
2016-Jun-21 20:34N 39°49' W 075°24'6 6.1
2016-Jun-21 19:33N 39°51' W 075°16'4 4.3
2016-Jun-21 18:34N 39°53' W 075°11'4 3.6
2016-Jun-21 17:34N 39°55' W 075°08'2 2.0
2016-Jun-21 16:34N 39°57' W 075°08'0 0.0
2016-Jun-21 15:33N 39°57' W 075°08'0 0.0
2016-Jun-21 14:34N 39°57' W 075°08'0 0.0
2016-Jun-21 13:33N 39°57' W 075°08'0 0.0
2016-Jun-21 12:34N 39°57' W 075°08'0 0.0
2016-Jun-21 11:34N 39°57' W 075°08'0 0.0
2016-Jun-21 10:34N 39°57' W 075°08'0 0.0
2016-Jun-21 09:34N 39°57' W 075°08'0 0.0
2016-Jun-21 08:33N 39°57' W 075°08'0 0.0
2016-Jun-21 07:34N 39°57' W 075°08'5 2.3
2016-Jun-21 05:34N 39°53' W 075°09'6 5.5
2016-Jun-21 04:34N 39°51' W 075°16'6 6.3
2016-Jun-21 03:34N 39°49' W 075°24'8 7.9
2016-Jun-21 02:34N 39°43' W 075°30'8 7.9
2016-Jun-21 01:34N 39°35' W 075°33'8 8.0
2016-Jun-21 00:34N 39°27' W 075°33'7 7.3
2016-Jun-20 23:34N 39°22' W 075°27'6 6.3
2016-Jun-20 22:34N 39°17' W 075°22'6 6.0
2016-Jun-20 21:33N 39°12' W 075°17'6 6.1
2016-Jun-20 20:34N 39°07' W 075°13'24 4.0
2016-Jun-20 14:28N 38°54' W 074°47'34 6.7
2016-Jun-20 09:21N 39°20' W 074°19'12 6.2
2016-Jun-20 07:30N 39°29' W 074°09'6 6.0
2016-Jun-20 06:33N 39°35' W 074°08'6 6.2
2016-Jun-20 05:33N 39°40' W 074°04'49 2.7
2016-Jun-19 11:33N 40°29' W 074°01'1 0.5
2016-Jun-19 10:04N 40°29' W 074°01'0 0.0
2016-Jun-19 09:33N 40°29' W 074°01'  

Dump ship's entire track history